Leo, Texas
Current Conditions -  °F | °C
As of 3:55 AM on Friday 28 Nov 2014 (Local Time) from KGYB Reporting Station
Clear Clear  
Wind Chill: 39°   Ceiling: Unl
Heat Index: 39°   Visibility: 10mi
Dew Point: 36°   Wind: 0mph
Humidity: 88%   Direction: NA
Pressure: 30.38"   Gusts: NA
Location:  30.4292°N, 97.0703°W
Report Text: KGYB 280955Z AUTO 00000KT 10SM CLR 04/02 A3038 RMK AO2 T00390021
Loading
Personal Weather Stations






























Interactive Weather Map New forecast layout! Learn more

10-Day Weather Forecast

Advertisements
Track Severe Weather on mobile